Time;durP1;ratioP1;P1;durP2;ratioP2;P2;SDS_P1;SDS_P2;PMS_P1;PMS_P2;Temp;Humidity;BMP_temperature;BMP_pressure;BME280_temperature;BME280_humidity;BME280_pressure;Samples;Min_cycle;Max_cycle;Signal;HPM_P1;HPM_P2
2023/10/29 00:01:57;;;;;;;7.95;3.03;;;;;;;;;;4997842;28;20089;-81
2023/10/29 00:04:23;;;;;;;7.07;3.15;;;;;;;;;;5001527;28;20046;-82
2023/10/29 00:06:49;;;;;;;5.38;2.95;;;;;;;;;;4999038;28;20078;-82
2023/10/29 00:09:17;;;;;;;7.82;3.00;;;;;;;;;;4986030;28;20038;-81
2023/10/29 00:11:43;;;;;;;10.38;3.25;;;;;;;;;;4984748;28;20058;-81
2023/10/29 00:14:09;;;;;;;8.05;3.40;;;;;;;;;;5000193;28;20046;-82
2023/10/29 00:16:35;;;;;;;7.80;3.30;;;;;;;;;;5011703;28;20046;-82
2023/10/29 00:19:01;;;;;;;7.43;3.92;;;;;;;;;;4990034;28;20046;-83
2023/10/29 00:21:29;;;;;;;8.25;4.03;;;;;;;;;;4998724;28;20058;-83
2023/10/29 00:23:55;;;;;;;7.80;3.97;;;;;;;;;;4991081;28;20050;-83
2023/10/29 00:26:21;;;;;;;8.70;4.43;;;;;;;;;;5010728;28;20058;-83
2023/10/29 00:28:47;;;;;;;8.45;4.38;;;;;;;;;;4998486;28;20396;-83
2023/10/29 00:31:13;;;;;;;8.63;4.50;;;;;;;;;;4999060;28;20042;-82
2023/10/29 00:33:40;;;;;;;12.02;4.78;;;;;;;;;;4998559;28;20046;-83
2023/10/29 00:36:06;;;;;;;8.57;4.50;;;;;;;;;;4999962;28;20381;-83
2023/10/29 00:38:32;;;;;;;8.85;4.82;;;;;;;;;;4999175;28;20038;-83
2023/10/29 00:40:58;;;;;;;10.10;4.45;;;;;;;;;;4994441;28;20548;-84
2023/10/29 00:43:24;;;;;;;10.32;4.82;;;;;;;;;;5002446;28;20042;-83
2023/10/29 00:45:54;;;;;;;9.93;4.38;;;;;;;;;;5000899;28;20510;-83
2023/10/29 00:48:20;;;;;;;11.20;5.15;;;;;;;;;;4994136;28;20050;-83
2023/10/29 00:50:46;;;;;;;7.72;4.47;;;;;;;;;;4999877;28;20038;-82
2023/10/29 00:53:12;;;;;;;9.68;4.50;;;;;;;;;;4998937;28;20095;-83
2023/10/29 00:55:39;;;;;;;7.80;4.70;;;;;;;;;;5001510;28;20038;-82
2023/10/29 00:58:05;;;;;;;8.77;5.22;;;;;;;;;;5001032;28;20047;-82
2023/10/29 01:00:31;;;;;;;8.85;4.65;;;;;;;;;;5001298;28;20046;-82
2023/10/29 01:02:58;;;;;;;9.05;5.10;;;;;;;;;;4994235;28;20055;-82
2023/10/29 01:05:24;;;;;;;7.80;4.50;;;;;;;;;;4990982;28;20053;-82
2023/10/29 01:07:50;;;;;;;8.35;4.35;;;;;;;;;;4998567;28;20495;-82
2023/10/29 01:10:16;;;;;;;6.47;4.43;;;;;;;;;;5002035;28;20523;-82
2023/10/29 01:12:45;;;;;;;9.80;4.43;;;;;;;;;;5001641;28;20072;-82
2023/10/29 01:15:11;;;;;;;8.23;4.30;;;;;;;;;;4993070;28;20043;-82
2023/10/29 01:17:38;;;;;;;6.97;4.10;;;;;;;;;;4994220;28;20403;-82
2023/10/29 01:20:04;;;;;;;8.07;4.10;;;;;;;;;;4997623;28;20051;-82
2023/10/29 01:22:30;;;;;;;7.65;4.50;;;;;;;;;;5001842;28;20042;-82
2023/10/29 01:24:56;;;;;;;8.75;4.20;;;;;;;;;;4999849;28;20053;-82
2023/10/29 01:27:22;;;;;;;7.90;4.70;;;;;;;;;;5001201;28;20054;-82
2023/10/29 01:29:49;;;;;;;7.47;4.63;;;;;;;;;;5001168;28;20053;-82
2023/10/29 01:32:15;;;;;;;9.10;4.57;;;;;;;;;;5000222;28;20073;-82
2023/10/29 01:34:41;;;;;;;9.10;4.40;;;;;;;;;;5017220;28;20038;-82
2023/10/29 01:37:07;;;;;;;8.32;4.15;;;;;;;;;;5003327;28;20042;-82
2023/10/29 01:39:33;;;;;;;8.95;4.10;;;;;;;;;;5001196;28;20551;-82
2023/10/29 01:41:59;;;;;;;7.60;4.63;;;;;;;;;;4996711;28;20042;-82
2023/10/29 01:44:25;;;;;;;8.73;4.20;;;;;;;;;;4982802;28;20050;-82
2023/10/29 01:46:51;;;;;;;8.02;4.03;;;;;;;;;;4983324;28;20050;-82
2023/10/29 01:49:17;;;;;;;7.68;3.58;;;;;;;;;;4982534;28;20054;-82
2023/10/29 01:51:44;;;;;;;9.02;4.13;;;;;;;;;;4991205;28;20042;-82
2023/10/29 01:54:10;;;;;;;9.32;3.90;;;;;;;;;;5002129;28;20043;-81
2023/10/29 01:56:36;;;;;;;7.90;4.25;;;;;;;;;;5002365;28;20050;-82
2023/10/29 01:59:02;;;;;;;7.07;3.70;;;;;;;;;;5001299;28;20039;-82
2023/10/29 02:01:28;;;;;;;11.35;4.00;;;;;;;;;;5000612;28;20078;-81
2023/10/29 02:03:54;;;;;;;9.38;4.10;;;;;;;;;;4989027;28;20137;-82
2023/10/29 02:06:20;;;;;;;7.40;3.50;;;;;;;;;;4996141;28;20397;-81
2023/10/29 02:08:46;;;;;;;9.30;3.50;;;;;;;;;;5001555;28;20050;-82
2023/10/29 02:11:12;;;;;;;8.82;3.53;;;;;;;;;;5001425;28;20042;-82
2023/10/29 02:13:39;;;;;;;7.88;3.58;;;;;;;;;;5001301;28;20105;-82
2023/10/29 02:16:05;;;;;;;7.38;3.65;;;;;;;;;;5001746;28;20042;-83
2023/10/29 02:18:31;;;;;;;8.13;3.30;;;;;;;;;;4998434;28;20055;-82
2023/10/29 02:20:57;;;;;;;8.23;2.97;;;;;;;;;;5001393;28;20050;-82
2023/10/29 02:23:23;;;;;;;8.20;3.10;;;;;;;;;;4991358;28;20054;-81
2023/10/29 02:25:49;;;;;;;6.47;3.22;;;;;;;;;;4988374;28;20058;-82
2023/10/29 02:28:15;;;;;;;7.40;2.70;;;;;;;;;;4986043;28;20047;-82
2023/10/29 02:30:41;;;;;;;8.30;3.28;;;;;;;;;;5001513;28;20076;-82
2023/10/29 02:33:07;;;;;;;6.25;2.95;;;;;;;;;;5000778;28;20066;-81
2023/10/29 02:35:33;;;;;;;8.38;2.80;;;;;;;;;;5002362;28;20046;-81
2023/10/29 02:37:59;;;;;;;8.60;2.65;;;;;;;;;;5002953;28;20046;-82
2023/10/29 02:40:25;;;;;;;8.25;2.30;;;;;;;;;;5001755;28;20046;-82
2023/10/29 02:42:52;;;;;;;5.68;2.13;;;;;;;;;;5002874;28;20054;-81
2023/10/29 02:45:18;;;;;;;7.97;2.40;;;;;;;;;;5001198;28;20058;-82
2023/10/29 02:47:44;;;;;;;8.48;2.90;;;;;;;;;;5004686;28;20061;-82
2023/10/29 02:50:10;;;;;;;5.38;2.40;;;;;;;;;;5002164;28;20053;-82
2023/10/29 02:52:36;;;;;;;7.43;2.35;;;;;;;;;;4999100;28;20054;-82
2023/10/29 02:55:04;;;;;;;5.85;2.10;;;;;;;;;;4992524;28;20038;-82
2023/10/29 02:57:30;;;;;;;7.45;2.65;;;;;;;;;;5005882;28;20084;-82
2023/10/29 02:59:56;;;;;;;5.50;2.05;;;;;;;;;;5004943;28;20045;-82
2023/10/29 03:02:22;;;;;;;7.75;2.45;;;;;;;;;;5006853;28;20103;-81
2023/10/29 03:04:48;;;;;;;8.25;2.45;;;;;;;;;;5005104;28;20046;-82
2023/10/29 03:07:14;;;;;;;7.55;2.33;;;;;;;;;;5005356;28;20089;-82
2023/10/29 03:09:40;;;;;;;7.75;2.30;;;;;;;;;;4994824;28;20067;-82
2023/10/29 03:12:07;;;;;;;6.28;2.05;;;;;;;;;;4988892;28;20050;-82
2023/10/29 03:14:33;;;;;;;6.38;2.15;;;;;;;;;;4987347;28;20046;-82
2023/10/29 03:16:59;;;;;;;5.90;2.00;;;;;;;;;;5007238;28;20531;-83
2023/10/29 03:19:25;;;;;;;7.15;1.95;;;;;;;;;;5006140;28;20391;-82
2023/10/29 03:21:51;;;;;;;5.97;1.80;;;;;;;;;;5007915;28;20118;-82
2023/10/29 03:24:18;;;;;;;7.45;2.05;;;;;;;;;;5005828;28;20050;-82
2023/10/29 03:26:44;;;;;;;5.95;1.92;;;;;;;;;;5002103;28;20500;-83
2023/10/29 03:29:10;;;;;;;6.57;1.85;;;;;;;;;;5007163;28;20050;-82
2023/10/29 03:31:37;;;;;;;4.47;1.77;;;;;;;;;;5006364;28;20046;-82
2023/10/29 03:34:04;;;;;;;5.28;1.83;;;;;;;;;;5002663;28;20050;-83
2023/10/29 03:36:30;;;;;;;7.38;2.10;;;;;;;;;;5005287;28;20042;-82
2023/10/29 03:38:56;;;;;;;8.02;1.70;;;;;;;;;;4990898;28;20066;-83
2023/10/29 03:41:23;;;;;;;6.80;1.80;;;;;;;;;;5001589;28;20104;-82
2023/10/29 03:43:50;;;;;;;7.35;1.67;;;;;;;;;;5007120;28;20046;-82
2023/10/29 03:46:16;;;;;;;7.20;1.90;;;;;;;;;;5003195;28;20042;-82
2023/10/29 03:48:44;;;;;;;5.05;1.73;;;;;;;;;;4991565;28;20064;-82
2023/10/29 03:51:14;;;;;;;8.45;2.00;;;;;;;;;;5006042;28;21431;-83
2023/10/29 03:53:40;;;;;;;6.65;1.80;;;;;;;;;;5006632;28;20074;-82
2023/10/29 03:56:07;;;;;;;5.40;1.77;;;;;;;;;;5007911;28;20488;-82
2023/10/29 03:58:33;;;;;;;5.75;1.50;;;;;;;;;;4995434;28;20047;-82
2023/10/29 04:01:01;;;;;;;7.18;2.20;;;;;;;;;;5002960;28;20051;-82
2023/10/29 04:03:28;;;;;;;5.32;1.63;;;;;;;;;;4988994;28;20046;-82
2023/10/29 04:05:54;;;;;;;5.85;1.60;;;;;;;;;;5006131;28;20061;-82
2023/10/29 04:08:20;;;;;;;5.07;1.58;;;;;;;;;;5007095;28;20049;-82
2023/10/29 04:10:46;;;;;;;4.60;1.55;;;;;;;;;;5003330;28;20046;-82
2023/10/29 04:13:12;;;;;;;8.40;2.00;;;;;;;;;;4995217;28;20373;-82
2023/10/29 04:15:38;;;;;;;4.43;1.65;;;;;;;;;;5006560;28;20042;-83
2023/10/29 04:18:04;;;;;;;5.35;1.70;;;;;;;;;;5005012;28;20046;-82
2023/10/29 04:20:31;;;;;;;7.30;1.70;;;;;;;;;;5008416;28;20065;-83
2023/10/29 04:22:57;;;;;;;6.45;1.63;;;;;;;;;;4994510;28;20042;-82
2023/10/29 04:25:23;;;;;;;5.05;1.38;;;;;;;;;;5001711;28;20039;-83
2023/10/29 04:27:49;;;;;;;6.13;1.60;;;;;;;;;;4996922;28;21494;-83
2023/10/29 04:30:16;;;;;;;8.13;1.55;;;;;;;;;;5008917;28;20043;-82
2023/10/29 04:32:42;;;;;;;6.00;1.50;;;;;;;;;;5006355;28;20054;-82
2023/10/29 04:35:08;;;;;;;3.92;1.42;;;;;;;;;;5003067;28;20042;-82
2023/10/29 04:37:34;;;;;;;4.30;1.30;;;;;;;;;;5006350;28;20046;-82
2023/10/29 04:40:00;;;;;;;5.78;1.40;;;;;;;;;;5005610;28;20496;-82
2023/10/29 04:42:26;;;;;;;5.75;1.55;;;;;;;;;;5004604;28;20039;-82
2023/10/29 04:44:52;;;;;;;5.60;1.30;;;;;;;;;;5006537;28;20050;-82
2023/10/29 04:47:18;;;;;;;5.90;1.50;;;;;;;;;;5003163;28;20041;-82
2023/10/29 04:49:45;;;;;;;4.28;1.30;;;;;;;;;;5003409;28;20106;-82
2023/10/29 04:52:11;;;;;;;4.82;1.40;;;;;;;;;;4992855;28;20053;-82
2023/10/29 04:54:37;;;;;;;2.92;1.02;;;;;;;;;;5001175;28;20034;-82
2023/10/29 04:57:03;;;;;;;5.07;1.30;;;;;;;;;;5002610;28;20381;-82
2023/10/29 04:59:29;;;;;;;5.25;1.20;;;;;;;;;;5004330;28;20046;-80
2023/10/29 05:01:55;;;;;;;7.38;1.30;;;;;;;;;;4989953;28;20464;-80
2023/10/29 05:04:21;;;;;;;4.35;1.10;;;;;;;;;;4986392;28;20070;-80
2023/10/29 05:06:47;;;;;;;4.78;0.90;;;;;;;;;;4995093;28;20049;-81
2023/10/29 05:09:13;;;;;;;3.50;1.25;;;;;;;;;;4998082;28;20122;-81
2023/10/29 05:11:39;;;;;;;4.15;1.13;;;;;;;;;;5004835;28;20530;-81
2023/10/29 05:14:06;;;;;;;5.32;1.15;;;;;;;;;;5004983;28;20109;-82
2023/10/29 05:16:32;;;;;;;6.50;1.20;;;;;;;;;;5002940;28;20546;-81
2023/10/29 05:18:59;;;;;;;6.25;0.95;;;;;;;;;;5003158;28;20060;-82
2023/10/29 05:21:25;;;;;;;4.20;1.10;;;;;;;;;;4996956;28;20053;-81
2023/10/29 05:23:52;;;;;;;4.78;1.20;;;;;;;;;;4996709;28;20054;-81
2023/10/29 05:26:18;;;;;;;4.65;1.02;;;;;;;;;;4988492;28;20043;-82
2023/10/29 05:28:44;;;;;;;3.75;1.10;;;;;;;;;;4997305;28;20504;-81
2023/10/29 05:31:10;;;;;;;4.85;0.98;;;;;;;;;;5002067;28;20042;-81
2023/10/29 05:33:37;;;;;;;3.63;0.85;;;;;;;;;;5001845;28;20046;-82
2023/10/29 05:36:04;;;;;;;5.95;1.00;;;;;;;;;;4996108;28;20496;-81
2023/10/29 05:38:30;;;;;;;4.57;1.20;;;;;;;;;;4982904;28;20046;-82
2023/10/29 05:40:56;;;;;;;5.45;1.10;;;;;;;;;;4992315;28;20046;-81
2023/10/29 05:43:22;;;;;;;4.03;1.00;;;;;;;;;;5000863;28;20043;-81
2023/10/29 05:45:48;;;;;;;4.72;1.08;;;;;;;;;;5001966;28;20066;-81
2023/10/29 05:48:14;;;;;;;5.20;1.08;;;;;;;;;;4999393;28;20084;-81
2023/10/29 05:50:40;;;;;;;4.32;0.98;;;;;;;;;;5001575;28;20046;-81
2023/10/29 05:53:06;;;;;;;6.55;0.88;;;;;;;;;;4990895;28;20050;-81
2023/10/29 05:55:33;;;;;;;5.95;1.00;;;;;;;;;;5001242;28;20106;-81
2023/10/29 05:57:59;;;;;;;5.65;1.20;;;;;;;;;;5001628;28;20104;-82
2023/10/29 06:00:25;;;;;;;5.20;1.08;;;;;;;;;;5000514;28;20051;-81
2023/10/29 06:02:52;;;;;;;2.92;0.82;;;;;;;;;;5002027;28;20042;-81
2023/10/29 06:05:18;;;;;;;2.47;0.70;;;;;;;;;;4999006;28;20092;-81
2023/10/29 06:07:44;;;;;;;3.40;0.75;;;;;;;;;;4984552;28;20046;-81
2023/10/29 06:10:14;;;;;;;3.50;0.95;;;;;;;;;;5001192;28;20122;-80
2023/10/29 06:12:41;;;;;;;4.80;1.00;;;;;;;;;;5001113;28;20049;-82
2023/10/29 06:15:11;;;;;;;5.35;0.90;;;;;;;;;;4999629;28;20043;-82
2023/10/29 06:17:37;;;;;;;7.28;0.90;;;;;;;;;;4997555;28;20061;-81
2023/10/29 06:20:04;;;;;;;5.80;1.17;;;;;;;;;;4996563;28;20110;-82
2023/10/29 06:22:31;;;;;;;5.88;1.00;;;;;;;;;;5000694;28;20127;-81
2023/10/29 06:24:57;;;;;;;6.25;1.00;;;;;;;;;;5002378;28;20058;-81
2023/10/29 06:27:23;;;;;;;4.22;0.90;;;;;;;;;;4999766;28;20050;-82
2023/10/29 06:29:49;;;;;;;3.33;0.90;;;;;;;;;;5007046;28;20393;-82
2023/10/29 06:32:15;;;;;;;4.13;1.00;;;;;;;;;;5005754;28;20070;-82
2023/10/29 06:34:41;;;;;;;3.78;0.88;;;;;;;;;;5016590;28;20376;-81
2023/10/29 06:37:07;;;;;;;3.85;0.90;;;;;;;;;;4998359;28;20054;-82
2023/10/29 06:39:33;;;;;;;5.05;1.10;;;;;;;;;;5006778;28;20066;-81
2023/10/29 06:41:59;;;;;;;6.00;0.80;;;;;;;;;;5006708;28;20098;-81
2023/10/29 06:44:25;;;;;;;3.92;0.80;;;;;;;;;;5006311;28;20117;-83
2023/10/29 06:46:51;;;;;;;6.35;1.17;;;;;;;;;;5008201;28;20046;-82
2023/10/29 06:49:17;;;;;;;4.22;1.05;;;;;;;;;;5007901;28;20038;-82
2023/10/29 06:51:44;;;;;;;4.15;0.85;;;;;;;;;;5005992;28;20137;-81
2023/10/29 06:54:12;;;;;;;3.75;0.80;;;;;;;;;;5007729;28;20089;-81
2023/10/29 06:56:38;;;;;;;5.38;1.20;;;;;;;;;;5007214;28;20058;-82
2023/10/29 06:59:04;;;;;;;4.22;1.00;;;;;;;;;;5006316;28;20116;-82
2023/10/29 07:01:30;;;;;;;7.03;0.90;;;;;;;;;;5003493;28;20090;-80
2023/10/29 07:03:59;;;;;;;4.32;0.85;;;;;;;;;;5005175;28;20484;-81
2023/10/29 07:06:25;;;;;;;4.82;1.00;;;;;;;;;;5005516;28;20517;-82
2023/10/29 07:08:51;;;;;;;4.75;1.25;;;;;;;;;;5007774;28;20054;-81
2023/10/29 07:11:19;;;;;;;4.65;1.00;;;;;;;;;;4987586;28;20061;-81
2023/10/29 07:13:45;;;;;;;3.05;0.80;;;;;;;;;;5006251;28;20109;-81
2023/10/29 07:16:11;;;;;;;3.60;0.88;;;;;;;;;;5007085;28;20406;-81
2023/10/29 07:18:37;;;;;;;7.72;1.50;;;;;;;;;;5007329;28;20133;-82
2023/10/29 07:21:03;;;;;;;6.78;1.70;;;;;;;;;;5006664;28;20563;-81
2023/10/29 07:23:29;;;;;;;8.07;1.23;;;;;;;;;;5007550;28;20054;-81
2023/10/29 07:25:55;;;;;;;7.00;1.00;;;;;;;;;;5005750;28;20077;-81
2023/10/29 07:28:21;;;;;;;4.90;1.02;;;;;;;;;;5005429;28;20054;-81
2023/10/29 07:30:48;;;;;;;5.70;1.10;;;;;;;;;;5005317;28;20050;-81
2023/10/29 07:33:14;;;;;;;4.97;1.10;;;;;;;;;;5006763;28;20046;-82
2023/10/29 07:35:40;;;;;;;4.47;1.42;;;;;;;;;;5007127;28;20057;-81
2023/10/29 07:38:09;;;;;;;3.78;1.23;;;;;;;;;;5005336;28;20174;-81
2023/10/29 07:40:36;;;;;;;5.03;1.10;;;;;;;;;;5005018;28;20050;-81
2023/10/29 07:43:03;;;;;;;6.95;1.92;;;;;;;;;;5007183;28;20049;-82
2023/10/29 07:45:29;;;;;;;7.68;1.92;;;;;;;;;;5000368;28;20420;-82
2023/10/29 07:47:55;;;;;;;7.07;2.38;;;;;;;;;;5000550;28;20128;-82
2023/10/29 07:50:21;;;;;;;6.72;2.40;;;;;;;;;;5005117;28;20042;-82
2023/10/29 07:52:48;;;;;;;6.20;1.60;;;;;;;;;;5005124;28;20038;-82
2023/10/29 07:55:14;;;;;;;9.48;2.33;;;;;;;;;;5000769;28;20070;-82
2023/10/29 07:57:40;;;;;;;6.88;1.33;;;;;;;;;;4995201;28;20069;-81
2023/10/29 08:00:10;;;;;;;8.10;1.60;;;;;;;;;;5005178;28;20042;-81
2023/10/29 08:02:37;;;;;;;6.60;1.75;;;;;;;;;;5005347;28;20054;-81
2023/10/29 08:05:03;;;;;;;7.13;1.40;;;;;;;;;;5006828;28;20108;-82
2023/10/29 08:07:29;;;;;;;7.82;1.00;;;;;;;;;;5002159;28;20077;-81
2023/10/29 08:09:58;;;;;;;5.85;1.17;;;;;;;;;;4997443;28;20062;-82
2023/10/29 08:12:26;;;;;;;7.00;1.23;;;;;;;;;;5006095;28;20424;-81
2023/10/29 08:14:52;;;;;;;4.53;1.02;;;;;;;;;;5005366;28;20057;-82
2023/10/29 08:17:18;;;;;;;6.70;1.63;;;;;;;;;;5005625;28;20046;-81
2023/10/29 08:19:45;;;;;;;6.93;0.95;;;;;;;;;;4999428;28;20123;-81
2023/10/29 08:22:11;;;;;;;5.30;1.00;;;;;;;;;;5002766;28;20070;-81
2023/10/29 08:24:37;;;;;;;6.95;1.05;;;;;;;;;;5006560;28;20039;-81
2023/10/29 08:27:06;;;;;;;3.53;0.80;;;;;;;;;;5004405;28;20069;-81
2023/10/29 08:29:34;;;;;;;9.43;1.30;;;;;;;;;;5005455;28;20050;-82
2023/10/29 08:32:00;;;;;;;4.40;1.00;;;;;;;;;;4986580;28;20090;-81
2023/10/29 08:34:27;;;;;;;4.90;1.05;;;;;;;;;;4987135;28;20135;-81
2023/10/29 08:36:53;;;;;;;6.20;1.30;;;;;;;;;;4996936;28;20054;-81
2023/10/29 08:39:21;;;;;;;6.47;1.23;;;;;;;;;;4998732;28;20050;-81
2023/10/29 08:41:47;;;;;;;8.35;2.17;;;;;;;;;;4997626;28;20050;-81
2023/10/29 08:44:14;;;;;;;6.65;1.10;;;;;;;;;;5005285;28;20051;-82
2023/10/29 08:46:43;;;;;;;6.07;1.20;;;;;;;;;;5004666;28;20446;-81
2023/10/29 08:49:09;;;;;;;6.93;1.17;;;;;;;;;;5003815;28;20053;-81
2023/10/29 08:51:35;;;;;;;5.40;0.80;;;;;;;;;;5005909;28;20426;-81
2023/10/29 08:54:02;;;;;;;6.07;1.13;;;;;;;;;;5002538;28;20043;-82
2023/10/29 08:56:31;;;;;;;7.90;1.10;;;;;;;;;;5005559;28;20425;-82
2023/10/29 08:58:57;;;;;;;6.72;1.00;;;;;;;;;;5004407;28;20060;-81
2023/10/29 09:01:23;;;;;;;5.25;0.90;;;;;;;;;;5004035;28;20054;-81
2023/10/29 09:03:49;;;;;;;4.93;0.90;;;;;;;;;;5006889;28;20144;-81
2023/10/29 09:06:16;;;;;;;5.35;1.02;;;;;;;;;;5003420;28;20051;-81
2023/10/29 09:08:42;;;;;;;5.45;0.95;;;;;;;;;;5004516;28;20049;-82
2023/10/29 09:11:13;;;;;;;5.72;0.90;;;;;;;;;;5005642;28;20047;-81
2023/10/29 09:13:39;;;;;;;7.75;0.80;;;;;;;;;;5005564;28;20051;-81
2023/10/29 09:16:06;;;;;;;6.25;1.15;;;;;;;;;;5003561;28;20078;-82
2023/10/29 09:18:32;;;;;;;6.28;1.27;;;;;;;;;;5005002;28;20050;-81
2023/10/29 09:20:58;;;;;;;4.32;0.90;;;;;;;;;;5005099;28;20431;-81
2023/10/29 09:23:24;;;;;;;5.13;1.05;;;;;;;;;;5004884;28;20050;-81
2023/10/29 09:25:50;;;;;;;6.53;1.00;;;;;;;;;;5002772;28;20050;-81
2023/10/29 09:28:17;;;;;;;7.70;1.00;;;;;;;;;;5005734;28;20361;-81
2023/10/29 09:30:43;;;;;;;7.15;1.42;;;;;;;;;;5004372;28;20046;-81
2023/10/29 09:33:12;;;;;;;7.13;1.10;;;;;;;;;;5004029;28;20053;-81
2023/10/29 09:35:39;;;;;;;9.10;1.45;;;;;;;;;;5004941;28;20042;-81
2023/10/29 09:38:05;;;;;;;8.35;1.33;;;;;;;;;;5004517;28;20047;-81
2023/10/29 09:40:31;;;;;;;6.63;1.15;;;;;;;;;;5003248;28;20054;-81
2023/10/29 09:42:58;;;;;;;5.88;1.08;;;;;;;;;;5002600;28;20046;-80
2023/10/29 09:45:26;;;;;;;6.60;1.45;;;;;;;;;;5004316;28;20077;-80
2023/10/29 09:47:58;;;;;;;10.18;1.48;;;;;;;;;;5004137;28;20058;-80
2023/10/29 09:50:25;;;;;;;6.97;1.30;;;;;;;;;;5004802;28;20395;-80
2023/10/29 09:52:52;;;;;;;9.15;1.70;;;;;;;;;;5003867;28;20328;-80
2023/10/29 09:55:20;;;;;;;10.50;1.70;;;;;;;;;;5004366;28;20136;-80
2023/10/29 09:57:46;;;;;;;10.00;1.33;;;;;;;;;;5004504;28;20061;-80
2023/10/29 10:00:15;;;;;;;8.25;1.35;;;;;;;;;;5004776;28;20050;-80
2023/10/29 10:02:57;;;;;;;7.50;1.30;;;;;;;;;;5004054;28;20050;-82
2023/10/29 10:05:30;;;;;;;10.88;1.23;;;;;;;;;;5004789;28;20056;-80
2023/10/29 10:07:56;;;;;;;9.20;1.55;;;;;;;;;;5005074;28;20061;-80
2023/10/29 10:10:35;;;;;;;7.68;1.60;;;;;;;;;;4997938;28;20047;-80
2023/10/29 10:13:01;;;;;;;9.70;1.48;;;;;;;;;;4986052;28;20047;-80
2023/10/29 10:15:27;;;;;;;13.27;2.08;;;;;;;;;;4985132;28;20066;-80
2023/10/29 10:18:01;;;;;;;10.40;1.63;;;;;;;;;;4984962;28;20065;-80
2023/10/29 10:20:28;;;;;;;7.60;1.30;;;;;;;;;;5004590;28;20102;-81
2023/10/29 10:22:58;;;;;;;11.07;1.88;;;;;;;;;;5003748;28;20476;-80
2023/10/29 10:25:24;;;;;;;6.23;1.63;;;;;;;;;;5005349;28;20103;-80
2023/10/29 10:27:51;;;;;;;8.57;1.60;;;;;;;;;;5005013;28;20694;-81
2023/10/29 10:30:27;;;;;;;9.13;1.33;;;;;;;;;;5005237;28;20038;-81
2023/10/29 10:32:53;;;;;;;8.65;1.50;;;;;;;;;;4987548;28;20042;-81
2023/10/29 10:35:20;;;;;;;8.68;1.50;;;;;;;;;;5002304;28;20046;-81
2023/10/29 10:37:55;;;;;;;11.20;1.48;;;;;;;;;;5003851;28;20092;-82
2023/10/29 10:40:23;;;;;;;11.45;1.85;;;;;;;;;;5004313;28;20101;-81
2023/10/29 10:42:54;;;;;;;11.27;1.70;;;;;;;;;;5002798;28;20062;-81
2023/10/29 10:45:26;;;;;;;12.85;1.60;;;;;;;;;;5003728;28;20094;-81
2023/10/29 10:47:55;;;;;;;6.63;1.23;;;;;;;;;;5003665;28;20054;-81
2023/10/29 10:50:21;;;;;;;8.35;1.38;;;;;;;;;;4985756;28;20051;-81
2023/10/29 10:52:49;;;;;;;10.18;1.73;;;;;;;;;;4985352;28;20092;-81
2023/10/29 10:55:15;;;;;;;8.02;1.45;;;;;;;;;;4985832;28;20066;-81
2023/10/29 10:57:41;;;;;;;9.65;1.92;;;;;;;;;;4984772;28;20061;-81
2023/10/29 11:00:10;;;;;;;9.20;1.63;;;;;;;;;;4998624;28;20122;-82
2023/10/29 11:02:41;;;;;;;10.73;1.70;;;;;;;;;;5003543;28;20504;-81
2023/10/29 11:05:09;;;;;;;10.45;1.58;;;;;;;;;;5004979;28;20050;-81
2023/10/29 11:07:36;;;;;;;9.63;1.70;;;;;;;;;;5004357;28;20038;-81
2023/10/29 11:10:03;;;;;;;10.30;1.60;;;;;;;;;;5004855;28;20057;-81
2023/10/29 11:12:35;;;;;;;9.23;1.60;;;;;;;;;;5005191;28;20222;-81
2023/10/29 11:15:14;;;;;;;6.10;1.40;;;;;;;;;;5008355;28;20054;-81
2023/10/29 11:17:49;;;;;;;10.32;2.03;;;;;;;;;;5008458;28;20058;-82
2023/10/29 11:20:34;;;;;;;7.82;1.50;;;;;;;;;;5008035;28;20055;-82
2023/10/29 11:23:07;;;;;;;10.25;1.63;;;;;;;;;;5006858;28;20050;-81
2023/10/29 11:25:33;;;;;;;9.38;2.15;;;;;;;;;;5008275;28;20073;-81
2023/10/29 11:28:00;;;;;;;11.55;2.20;;;;;;;;;;5008376;28;20082;-82
2023/10/29 11:30:30;;;;;;;13.50;2.60;;;;;;;;;;5008215;28;20050;-81
2023/10/29 11:33:08;;;;;;;11.35;3.38;;;;;;;;;;5006979;28;20562;-81
2023/10/29 11:35:34;;;;;;;10.30;2.38;;;;;;;;;;5008148;28;20119;-82
2023/10/29 11:38:02;;;;;;;13.75;2.40;;;;;;;;;;5006044;28;20077;-81
2023/10/29 11:40:31;;;;;;;9.13;1.73;;;;;;;;;;5007965;28;20055;-82
2023/10/29 11:43:14;;;;;;;12.68;2.00;;;;;;;;;;5008149;28;20045;-81
2023/10/29 11:45:40;;;;;;;8.00;1.70;;;;;;;;;;5006726;28;20077;-82
2023/10/29 11:48:09;;;;;;;7.85;1.67;;;;;;;;;;5008707;28;20054;-82
2023/10/29 11:50:38;;;;;;;10.00;1.40;;;;;;;;;;5007531;28;20061;-81
2023/10/29 11:53:04;;;;;;;9.07;1.70;;;;;;;;;;5007714;28;20053;-81
2023/10/29 11:55:41;;;;;;;8.55;1.50;;;;;;;;;;5008128;28;20050;-82
2023/10/29 11:58:08;;;;;;;8.80;1.70;;;;;;;;;;5008396;28;20050;-81
2023/10/29 12:00:38;;;;;;;11.93;1.88;;;;;;;;;;5005886;28;20054;-82
2023/10/29 12:03:04;;;;;;;7.37;1.53;;;;;;;;;;4987028;28;20061;-82
2023/10/29 12:05:31;;;;;;;8.57;1.42;;;;;;;;;;5002463;28;20100;-81
2023/10/29 12:08:00;;;;;;;7.90;1.45;;;;;;;;;;5007353;28;20044;-82
2023/10/29 12:10:26;;;;;;;8.45;1.80;;;;;;;;;;5007679;28;20121;-82
2023/10/29 12:12:53;;;;;;;9.48;1.80;;;;;;;;;;5007406;28;20046;-81
2023/10/29 12:15:19;;;;;;;10.13;1.83;;;;;;;;;;5006826;28;20500;-82
2023/10/29 12:17:46;;;;;;;10.40;1.80;;;;;;;;;;5006967;28;20050;-82
2023/10/29 12:20:26;;;;;;;10.70;1.67;;;;;;;;;;5007042;28;20062;-82
2023/10/29 12:22:57;;;;;;;11.88;2.08;;;;;;;;;;5007819;28;20068;-81
2023/10/29 12:25:24;;;;;;;9.15;1.60;;;;;;;;;;5005984;28;20054;-81
2023/10/29 12:27:50;;;;;;;8.02;1.90;;;;;;;;;;5006515;28;20042;-82
2023/10/29 12:30:35;;;;;;;10.48;2.00;;;;;;;;;;5007073;28;20084;-82
2023/10/29 12:33:16;;;;;;;8.82;1.83;;;;;;;;;;5005367;28;20081;-82
2023/10/29 12:35:42;;;;;;;;;;;;;;;;;;5006549;28;20046;-82
2023/10/29 12:38:12;;;;;;;9.35;1.63;;;;;;;;;;5006759;28;19922;-82
2023/10/29 12:40:38;;;;;;;10.38;1.50;;;;;;;;;;5006797;28;20050;-82
2023/10/29 12:43:04;;;;;;;7.70;1.40;;;;;;;;;;5006692;28;20046;-82
2023/10/29 12:45:35;;;;;;;9.70;1.42;;;;;;;;;;5004673;28;20046;-82
2023/10/29 12:48:08;;;;;;;10.43;1.88;;;;;;;;;;5007252;28;20054;-82
2023/10/29 12:50:47;;;;;;;9.02;1.80;;;;;;;;;;5007558;28;20125;-82
2023/10/29 12:53:20;;;;;;;7.85;1.60;;;;;;;;;;5007028;28;20078;-82
2023/10/29 12:55:47;;;;;;;8.05;1.88;;;;;;;;;;5006033;28;20046;-82
2023/10/29 12:58:13;;;;;;;10.35;2.25;;;;;;;;;;5007362;28;20094;-82
2023/10/29 13:00:39;;;;;;;8.35;1.58;;;;;;;;;;5006691;28;20120;-82
2023/10/29 13:03:05;;;;;;;10.10;1.70;;;;;;;;;;5006981;28;20046;-82
2023/10/29 13:05:31;;;;;;;10.52;3.78;;;;;;;;;;5006991;28;20054;-81
2023/10/29 13:07:58;;;;;;;8.80;1.58;;;;;;;;;;5005672;28;20106;-81
2023/10/29 13:10:24;;;;;;;11.95;1.60;;;;;;;;;;5006321;28;20426;-82
2023/10/29 13:12:50;;;;;;;9.70;1.60;;;;;;;;;;5005755;28;20081;-82
2023/10/29 13:15:18;;;;;;;9.35;1.77;;;;;;;;;;4990169;28;20050;-82
2023/10/29 13:17:45;;;;;;;9.07;1.90;;;;;;;;;;5005911;28;20057;-81
2023/10/29 13:20:12;;;;;;;9.60;1.83;;;;;;;;;;5006148;28;20070;-82
2023/10/29 13:22:42;;;;;;;10.82;1.92;;;;;;;;;;5006203;28;20054;-83
2023/10/29 13:25:08;;;;;;;10.32;3.33;;;;;;;;;;5006854;28;20109;-81
2023/10/29 13:27:34;;;;;;;10.38;3.47;;;;;;;;;;5006517;28;20053;-81
2023/10/29 13:30:01;;;;;;;9.90;1.77;;;;;;;;;;5006779;28;20054;-81
2023/10/29 13:32:27;;;;;;;9.25;1.95;;;;;;;;;;5006715;28;20107;-81
2023/10/29 13:34:54;;;;;;;10.77;1.98;;;;;;;;;;5006268;28;20128;-82
2023/10/29 13:37:20;;;;;;;17.13;9.07;;;;;;;;;;5006623;28;20065;-82
2023/10/29 13:39:47;;;;;;;11.30;2.75;;;;;;;;;;5006073;28;20056;-81
2023/10/29 13:42:13;;;;;;;6.85;1.23;;;;;;;;;;5005580;28;20046;-81
2023/10/29 13:44:39;;;;;;;13.23;2.05;;;;;;;;;;5004147;28;20058;-81
2023/10/29 13:47:05;;;;;;;7.72;1.77;;;;;;;;;;5004485;28;20098;-81
2023/10/29 13:49:31;;;;;;;10.85;1.63;;;;;;;;;;5006711;28;20484;-82
2023/10/29 13:51:57;;;;;;;8.52;1.60;;;;;;;;;;5007229;28;20038;-81
2023/10/29 13:54:23;;;;;;;13.30;2.08;;;;;;;;;;5006548;28;20061;-81
2023/10/29 13:56:50;;;;;;;7.82;1.65;;;;;;;;;;5006951;28;20057;-82
2023/10/29 13:59:16;;;;;;;10.20;1.88;;;;;;;;;;5006120;28;20061;-81
2023/10/29 14:01:42;;;;;;;10.68;2.85;;;;;;;;;;5006425;28;20138;-81
2023/10/29 14:04:08;;;;;;;12.68;2.55;;;;;;;;;;5004523;28;20058;-82
2023/10/29 14:06:34;;;;;;;10.45;1.83;;;;;;;;;;5006751;28;20073;-82
2023/10/29 14:09:01;;;;;;;8.82;2.08;;;;;;;;;;5006201;28;20054;-81
2023/10/29 14:11:27;;;;;;;10.23;2.60;;;;;;;;;;5005667;28;20073;-81
2023/10/29 14:13:55;;;;;;;7.78;2.10;;;;;;;;;;5005622;28;20057;-81
2023/10/29 14:16:35;;;;;;;11.57;2.45;;;;;;;;;;5004220;28;20057;-81
2023/10/29 14:19:01;;;;;;;12.70;3.67;;;;;;;;;;5005401;28;20046;-81
2023/10/29 14:21:27;;;;;;;10.68;2.78;;;;;;;;;;5005668;28;20145;-81
2023/10/29 14:23:54;;;;;;;11.57;3.13;;;;;;;;;;5004656;28;20053;-81
2023/10/29 14:26:20;;;;;;;15.57;3.22;;;;;;;;;;5003959;28;20050;-81
2023/10/29 14:28:46;;;;;;;8.45;2.45;;;;;;;;;;5004451;28;20055;-81
2023/10/29 14:31:12;;;;;;;10.75;2.08;;;;;;;;;;5004084;28;20050;-81
2023/10/29 14:33:38;;;;;;;8.50;1.75;;;;;;;;;;5005245;28;20097;-81
2023/10/29 14:36:04;;;;;;;10.05;2.45;;;;;;;;;;5002621;28;20061;-82
2023/10/29 14:38:31;;;;;;;11.52;1.75;;;;;;;;;;5004375;28;20060;-81
2023/10/29 14:41:00;;;;;;;11.57;1.80;;;;;;;;;;5004701;28;20053;-81